Terminal Aerodrome Forecast
Issued by NWS Austin/San Antonio, TX

Home | Current Version | Previous Version | Text Only | Print | Product List | Glossary On
Versions: 1 2 3 4 5 6 7 8 9 10 11 12 13 14 15 16 17 18 19 20 21 22 23 24 25 26 27 28 29 30 31 32 33 34
000
FTUS44 KEWX 261145 AAA
TAFSAT
TAF AMD
KSAT 261145Z 2612/2718 VRB03KT P6SM BKN009
     FM261400 12005KT P6SM BKN015
     FM262000 16007KT P6SM BKN050
     FM270600 12006KT P6SM OVC015=

USA.gov is the U.S. government's official web portal to all federal, state and local government web resources and services.